Time;durP1;ratioP1;P1;durP2;ratioP2;P2;SDS_P1;SDS_P2;PMS_P1;PMS_P2;Temp;Humidity;BMP_temperature;BMP_pressure;BME280_temperature;BME280_humidity;BME280_pressure;Samples;Min_cycle;Max_cycle;Signal;HPM_P1;HPM_P2
2021/12/18 00:01:09;;;;;;;22.3;12.1;;;;;;;;;;;;;
2021/12/18 00:03:34;;;;;;;20.4;11.2;;;;;;;;;;;;;
2021/12/18 00:06:01;;;;;;;20;10.8;;;;;;;;;;;;;
2021/12/18 00:08:26;;;;;;;16.5;10;;;;;;;;;;;;;
2021/12/18 00:10:53;;;;;;;16.3;9;;;;;;;;;;;;;
2021/12/18 00:13:18;;;;;;;14.1;7.8;;;;;;;;;;;;;
2021/12/18 00:15:44;;;;;;;13.2;7.9;;;;;;;;;;;;;
2021/12/18 00:18:09;;;;;;;12.2;7.3;;;;;;;;;;;;;
2021/12/18 00:20:37;;;;;;;11.3;6.7;;;;;;;;;;;;;
2021/12/18 00:23:01;;;;;;;14.7;7.8;;;;;;;;;;;;;
2021/12/18 00:25:27;;;;;;;12.6;7.7;;;;;;;;;;;;;
2021/12/18 00:27:52;;;;;;;13.7;7.2;;;;;;;;;;;;;
2021/12/18 00:30:18;;;;;;;14.7;8;;;;;;;;;;;;;
2021/12/18 00:32:53;;;;;;;15.4;8.1;;;;;;;;;;;;;
2021/12/18 00:35:19;;;;;;;11.8;6.8;;;;;;;;;;;;;
2021/12/18 00:37:43;;;;;;;10.3;6;;;;;;;;;;;;;
2021/12/18 00:40:16;;;;;;;8.8;5.3;;;;;;;;;;;;;
2021/12/18 00:42:58;;;;;;;8.6;5.1;;;;;;;;;;;;;
2021/12/18 00:45:17;;;;;;;7.4;4.7;;;;;;;;;;;;;
2021/12/18 00:47:42;;;;;;;8.4;5.5;;;;;;;;;;;;;
2021/12/18 00:50:07;;;;;;;7;4.7;;;;;;;;;;;;;
2021/12/18 00:52:32;;;;;;;9.3;5.1;;;;;;;;;;;;;
2021/12/18 00:55:06;;;;;;;7.6;5;;;;;;;;;;;;;
2021/12/18 00:57:31;;;;;;;8.4;5.1;;;;;;;;;;;;;
2021/12/18 01:00:00;;;;;;;8.7;5.2;;;;;;;;;;;;;
2021/12/18 01:02:22;;;;;;;8.9;5.3;;;;;;;;;;;;;
2021/12/18 01:04:47;;;;;;;9.8;5.2;;;;;;;;;;;;;
2021/12/18 01:07:12;;;;;;;9.2;5.6;;;;;;;;;;;;;
2021/12/18 01:09:51;;;;;;;14.1;6.3;;;;;;;;;;;;;
2021/12/18 01:12:04;;;;;;;10.5;6.2;;;;;;;;;;;;;
2021/12/18 01:14:44;;;;;;;11;5.5;;;;;;;;;;;;;
2021/12/18 01:22:40;;;;;;;8.2;5;;;;;;;;;;;;;
2021/12/18 01:24:11;;;;;;;7.2;4.5;;;;;;;;;;;;;
2021/12/18 01:26:38;;;;;;;7.6;4.2;;;;;;;;;;;;;
2021/12/18 01:29:03;;;;;;;6.8;4;;;;;;;;;;;;;
2021/12/18 01:31:28;;;;;;;8.2;4.5;;;;;;;;;;;;;
2021/12/18 01:33:53;;;;;;;7.5;4.4;;;;;;;;;;;;;
2021/12/18 01:36:19;;;;;;;8.5;4.3;;;;;;;;;;;;;
2021/12/18 01:38:44;;;;;;;8.7;4.6;;;;;;;;;;;;;
2021/12/18 01:41:10;;;;;;;8.2;4.3;;;;;;;;;;;;;
2021/12/18 01:46:17;;;;;;;6.4;4.3;;;;;;;;;;;;;
2021/12/18 01:53:16;;;;;;;6.3;4.1;;;;;;;;;;;;;
2021/12/18 01:55:41;;;;;;;6.6;4.3;;;;;;;;;;;;;
2021/12/18 01:58:07;;;;;;;6.5;4.2;;;;;;;;;;;;;
2021/12/18 02:00:34;;;;;;;6.8;4.1;;;;;;;;;;;;;
2021/12/18 02:02:58;;;;;;;6.4;4;;;;;;;;;;;;;
2021/12/18 02:05:23;;;;;;;5.9;3.8;;;;;;;;;;;;;
2021/12/18 02:07:48;;;;;;;6.8;3.9;;;;;;;;;;;;;
2021/12/18 02:10:20;;;;;;;6.8;4;;;;;;;;;;;;;
2021/12/18 02:12:46;;;;;;;6.1;4.1;;;;;;;;;;;;;
2021/12/18 02:20:10;;;;;;;10;4.8;;;;;;;;;;;;;
2021/12/18 02:22:22;;;;;;;8.2;4;;;;;;;;;;;;;
2021/12/18 02:24:46;;;;;;;6.2;3.7;;;;;;;;;;;;;
2021/12/18 02:27:11;;;;;;;5;3.5;;;;;;;;;;;;;
2021/12/18 02:29:43;;;;;;;6.1;3.5;;;;;;;;;;;;;
2021/12/18 02:32:07;;;;;;;7.3;4.1;;;;;;;;;;;;;
2021/12/18 02:34:34;;;;;;;7.1;4.3;;;;;;;;;;;;;
2021/12/18 02:37:03;;;;;;;7.5;3.9;;;;;;;;;;;;;
2021/12/18 02:39:37;;;;;;;7.2;4.2;;;;;;;;;;;;;
2021/12/18 02:42:07;;;;;;;6.7;3.9;;;;;;;;;;;;;
2021/12/18 02:44:14;;;;;;;6.7;3.9;;;;;;;;;;;;;
2021/12/18 02:46:39;;;;;;;7.3;3.9;;;;;;;;;;;;;
2021/12/18 02:49:04;;;;;;;6.5;4.5;;;;;;;;;;;;;
2021/12/18 02:51:29;;;;;;;6.1;4.2;;;;;;;;;;;;;
2021/12/18 02:53:54;;;;;;;6.7;4.4;;;;;;;;;;;;;
2021/12/18 02:56:23;;;;;;;11.6;6.9;;;;;;;;;;;;;
2021/12/18 02:58:45;;;;;;;11.2;5.2;;;;;;;;;;;;;
2021/12/18 03:01:10;;;;;;;6.5;4.2;;;;;;;;;;;;;
2021/12/18 03:03:39;;;;;;;5.7;3.9;;;;;;;;;;;;;
2021/12/18 03:06:13;;;;;;;9.5;4.2;;;;;;;;;;;;;
2021/12/18 03:08:38;;;;;;;7.4;4.3;;;;;;;;;;;;;
2021/12/18 03:22:41;;;;;;;7.9;4.5;;;;;;;;;;;;;
2021/12/18 03:23:15;;;;;;;7.8;4.2;;;;;;;;;;;;;
2021/12/18 03:25:30;;;;;;;8.1;4;;;;;;;;;;;;;
2021/12/18 03:27:54;;;;;;;8.3;4.3;;;;;;;;;;;;;
2021/12/18 03:30:19;;;;;;;7.2;4.3;;;;;;;;;;;;;
2021/12/18 03:32:44;;;;;;;9;4.6;;;;;;;;;;;;;
2021/12/18 03:35:12;;;;;;;5.8;3.9;;;;;;;;;;;;;
2021/12/18 03:37:38;;;;;;;12.7;4.3;;;;;;;;;;;;;
2021/12/18 03:40:03;;;;;;;6;3.9;;;;;;;;;;;;;
2021/12/18 03:42:39;;;;;;;5.7;4;;;;;;;;;;;;;
2021/12/18 03:45:04;;;;;;;6.1;4;;;;;;;;;;;;;
2021/12/18 03:47:30;;;;;;;7.1;3.7;;;;;;;;;;;;;
2021/12/18 03:49:55;;;;;;;5;3.6;;;;;;;;;;;;;
2021/12/18 03:52:20;;;;;;;5.8;3.4;;;;;;;;;;;;;
2021/12/18 03:54:46;;;;;;;4.4;3.1;;;;;;;;;;;;;
2021/12/18 03:57:11;;;;;;;5.1;3.4;;;;;;;;;;;;;
2021/12/18 03:59:37;;;;;;;4.5;2.9;;;;;;;;;;;;;
2021/12/18 04:02:33;;;;;;;4.1;3.1;;;;;;;-2.89;95.89453;954.9741;;;;
2021/12/18 04:05:03;;;;;;;3.9;2.6;;;;;;;-2.82;95.63672;955.0154;;;;
2021/12/18 04:07:29;;;;;;;6.1;3;;;;;;;-2.71;94.70703;954.9489;;;;
2021/12/18 04:09:59;;;;;;;5.4;3.2;;;;;;;-2.72;94.2959;954.9731;;;;
2021/12/18 04:12:29;;;;;;;3.6;3;;;;;;;-2.65;93.84668;954.9381;;;;
2021/12/18 04:14:54;;;;;;;4;2.7;;;;;;;-2.79;93.49609;954.861;;;;
2021/12/18 04:17:22;;;;;;;4.2;2.7;;;;;;;-2.97;94.1748;954.8022;;;;
2021/12/18 04:20:16;;;;;;;3.4;2.6;;;;;;;-2.81;93.7666;954.7986;;;;
2021/12/18 04:22:40;;;;;;;4.4;3;;;;;;;-2.95;93.51465;954.8317;;;;
2021/12/18 04:25:09;;;;;;;3.4;2.6;;;;;;;-2.84;93.64941;954.8469;;;;
2021/12/18 04:27:38;;;;;;;3.6;2.4;;;;;;;-2.73;93.21777;954.8756;;;;
2021/12/18 04:30:03;;;;;;;4.2;3;;;;;;;-2.84;93.15137;954.8491;;;;
2021/12/18 04:32:28;;;;;;;4.1;3;;;;;;;-2.9;93.39453;954.7715;;;;
2021/12/18 04:34:57;;;;;;;2.9;2.3;;;;;;;-2.94;93.31738;954.755;;;;
2021/12/18 04:37:23;;;;;;;2.7;2.2;;;;;;;-3;93.65918;954.837;;;;
2021/12/18 04:39:53;;;;;;;3.2;2.4;;;;;;;-3.05;93.91309;954.8323;;;;
2021/12/18 04:42:18;;;;;;;3.1;2.5;;;;;;;-3.12;94.21777;954.9627;;;;
2021/12/18 04:44:45;;;;;;;3.8;2.5;;;;;;;-3.03;93.9834;954.9515;;;;
2021/12/18 04:47:10;;;;;;;3.4;2.4;;;;;;;-2.9;93.6709;954.9133;;;;
2021/12/18 04:49:38;;;;;;;4.1;2.6;;;;;;;-2.81;93.03613;954.9291;;;;
2021/12/18 04:52:03;;;;;;;3.6;2.5;;;;;;;-2.87;93.12402;954.9202;;;;
2021/12/18 04:54:28;;;;;;;3.5;2.2;;;;;;;-2.72;92.72363;955.0147;;;;
2021/12/18 04:56:53;;;;;;;4.1;2.4;;;;;;;-2.82;92.46973;954.9932;;;;
2021/12/18 04:59:18;;;;;;;3.1;2.4;;;;;;;-2.97;92.95605;955.0637;;;;
2021/12/18 05:01:44;;;;;;;4.8;2.7;;;;;;;-2.93;92.66699;955.065;;;;
2021/12/18 05:04:14;;;;;;;4.1;2.5;;;;;;;-2.85;92.33105;955.0731;;;;
2021/12/18 05:06:39;;;;;;;4.1;2.7;;;;;;;-3.05;92.80664;955.0256;;;;
2021/12/18 05:09:02;;;;;;;2.6;2.3;;;;;;;-3.13;93.39746;955.0553;;;;
2021/12/18 05:11:30;;;;;;;3.1;2.4;;;;;;;-3.01;93.13379;955.0676;;;;
2021/12/18 05:13:55;;;;;;;3.6;2.4;;;;;;;-2.8;92.23242;955.0705;;;;
2021/12/18 05:16:24;;;;;;;4.5;2.5;;;;;;;-2.68;91.47266;955.1158;;;;
2021/12/18 05:18:50;;;;;;;3.6;2.6;;;;;;;-2.6;90.49121;955.0244;;;;
2021/12/18 05:21:16;;;;;;;3.8;2.8;;;;;;;-2.6;90.50488;955.1044;;;;
2021/12/18 05:23:44;;;;;;;3.8;2.4;;;;;;;-2.46;89.8916;955.1379;;;;
2021/12/18 05:26:09;;;;;;;2.5;2.1;;;;;;;-2.51;90.10352;955.1652;;;;
2021/12/18 05:28:35;;;;;;;3.6;2.4;;;;;;;-2.43;89.9082;955.1276;;;;
2021/12/18 05:31:00;;;;;;;3.3;2.1;;;;;;;-2.45;89.27344;955.1683;;;;
2021/12/18 05:33:29;;;;;;;7.4;5;;;;;;;-2.34;88.91992;955.1725;;;;
2021/12/18 05:35:54;;;;;;;8.4;4.2;;;;;;;-2.4;89.15039;955.1892;;;;
2021/12/18 05:38:24;;;;;;;7.4;5.2;;;;;;;-2.6;89.90723;955.1964;;;;
2021/12/18 05:40:56;;;;;;;6.2;4.8;;;;;;;-2.53;90.37402;955.2639;;;;
2021/12/18 05:43:21;;;;;;;10.4;6.7;;;;;;;-2.38;89.80957;955.1588;;;;
2021/12/18 05:45:47;;;;;;;6.4;4.6;;;;;;;-2.45;89.14063;955.2205;;;;
2021/12/18 05:48:12;;;;;;;7.4;4.8;;;;;;;-2.47;89.17188;955.2747;;;;
2021/12/18 05:53:57;;;;;;;6.6;4.6;;;;;;;-2.42;88.67188;955.2578;;;;
2021/12/18 05:56:22;;;;;;;5.3;4;;;;;;;-2.61;89.10547;955.2634;;;;
2021/12/18 05:58:47;;;;;;;6.1;4.1;;;;;;;-2.62;89.27051;955.2547;;;;
2021/12/18 06:01:13;;;;;;;5.3;3.9;;;;;;;-2.62;89.56934;955.1425;;;;
2021/12/18 06:03:38;;;;;;;5.4;3.5;;;;;;;-2.49;88.92188;955.2216;;;;
2021/12/18 06:06:07;;;;;;;5;3.5;;;;;;;-2.43;88.45801;955.1981;;;;
2021/12/18 06:08:34;;;;;;;4.2;3;;;;;;;-2.45;88.06836;955.239;;;;
2021/12/18 06:11:09;;;;;;;3.3;2.9;;;;;;;-2.36;87.58887;955.179;;;;
2021/12/18 06:13:28;;;;;;;4;3;;;;;;;-2.41;87.90723;955.1948;;;;
2021/12/18 06:15:54;;;;;;;3.8;3.1;;;;;;;-2.62;88.75195;955.2255;;;;
2021/12/18 06:18:19;;;;;;;4.4;3.5;;;;;;;-2.54;88.99902;955.3172;;;;
2021/12/18 06:20:45;;;;;;;5.1;4.4;;;;;;;-2.51;88.40723;955.2542;;;;
2021/12/18 06:23:11;;;;;;;11;7.2;;;;;;;-2.52;88.27441;955.3328;;;;
2021/12/18 06:25:38;;;;;;;12.2;9.2;;;;;;;-2.74;89.47754;955.2941;;;;
2021/12/18 06:28:04;;;;;;;10.9;8;;;;;;;-2.62;89.13867;955.3138;;;;
2021/12/18 06:30:29;;;;;;;11.3;7.4;;;;;;;-2.66;89.00781;955.2537;;;;
2021/12/18 06:32:54;;;;;;;9.1;6.4;;;;;;;-2.58;88.79102;955.2305;;;;
2021/12/18 06:35:21;;;;;;;4.1;3.3;;;;;;;-2.58;88.84766;955.2917;;;;
2021/12/18 06:37:46;;;;;;;12.2;6.7;;;;;;;-2.59;88.97656;955.2878;;;;
2021/12/18 06:40:13;;;;;;;14.1;8.4;;;;;;;-2.65;89.2666;955.2737;;;;
2021/12/18 06:42:38;;;;;;;22.5;12;;;;;;;-2.6;89.00977;955.3014;;;;
2021/12/18 06:45:05;;;;;;;7.8;5.3;;;;;;;-2.6;88.7334;955.304;;;;
2021/12/18 06:47:30;;;;;;;6.5;3.9;;;;;;;-2.54;88.60059;955.3405;;;;
2021/12/18 06:49:55;;;;;;;5.4;3.6;;;;;;;-2.6;88.40137;955.3445;;;;
2021/12/18 06:52:24;;;;;;;8.7;5.2;;;;;;;-2.76;89.25195;955.3265;;;;
2021/12/18 06:54:49;;;;;;;9.6;6.3;;;;;;;-2.69;89.74316;955.3467;;;;
2021/12/18 06:57:22;;;;;;;11;7.3;;;;;;;-2.65;89.83984;955.3649;;;;
2021/12/18 06:59:42;;;;;;;17.3;10.7;;;;;;;-2.65;90.19434;955.3742;;;;
2021/12/18 07:02:07;;;;;;;19.5;11.8;;;;;;;-2.52;89.79102;955.3811;;;;
2021/12/18 07:04:37;;;;;;;18;10.9;;;;;;;-2.5;89.68457;955.3641;;;;
2021/12/18 07:07:41;;;;;;;20.1;12.7;;;;;;;-2.4;89.06152;955.3656;;;;
2021/12/18 07:10:07;;;;;;;25.3;15.6;;;;;;;-2.5;89.00684;955.373;;;;
2021/12/18 07:12:33;;;;;;;20;12.2;;;;;;;-2.62;89.41602;955.4604;;;;
2021/12/18 07:14:59;;;;;;;22.1;13.4;;;;;;;-2.69;89.66602;955.4164;;;;
2021/12/18 07:17:27;;;;;;;14.7;10.1;;;;;;;-2.56;89.32813;955.49;;;;
2021/12/18 07:19:52;;;;;;;9.8;6.8;;;;;;;-2.67;89.22559;955.4718;;;;
2021/12/18 07:22:18;;;;;;;10;6.9;;;;;;;-2.57;89.33691;955.4927;;;;
2021/12/18 07:24:44;;;;;;;10.9;7.3;;;;;;;-2.56;88.90723;955.4744;;;;
2021/12/18 07:27:12;;;;;;;11.8;7.1;;;;;;;-2.48;88.92383;955.4881;;;;
2021/12/18 07:29:37;;;;;;;11.1;7.6;;;;;;;-2.38;88.43555;955.4939;;;;
2021/12/18 07:32:02;;;;;;;13.5;9.3;;;;;;;-2.47;88.62891;955.4042;;;;
2021/12/18 07:34:28;;;;;;;15.1;9.4;;;;;;;-2.3;88.5752;955.454;;;;
2021/12/18 07:36:56;;;;;;;14.6;9.2;;;;;;;-2.22;87.8252;955.4414;;;;
2021/12/18 07:39:21;;;;;;;15.8;9.1;;;;;;;-2.18;87.69043;955.3628;;;;
2021/12/18 07:41:47;;;;;;;13;8.7;;;;;;;-2.1;87.08691;955.3636;;;;
2021/12/18 07:44:12;;;;;;;13.9;9.1;;;;;;;-2.07;86.91504;955.3369;;;;
2021/12/18 07:46:37;;;;;;;16.7;9.7;;;;;;;-2.22;87.37305;955.3834;;;;
2021/12/18 07:49:03;;;;;;;21.9;12.5;;;;;;;-2.32;87.58496;955.3775;;;;
2021/12/18 07:51:28;;;;;;;28.2;15.4;;;;;;;-2.31;87.9082;955.327;;;;
2021/12/18 07:53:53;;;;;;;20.1;12;;;;;;;-2.54;88.30176;955.3218;;;;
2021/12/18 07:56:19;;;;;;;12.8;8.4;;;;;;;-2.74;89.05664;955.3596;;;;
2021/12/18 07:58:45;;;;;;;9.7;6;;;;;;;-2.72;89.27246;955.2927;;;;
2021/12/18 08:01:09;;;;;;;7.6;4.9;;;;;;;-2.69;89.15527;955.3063;;;;
2021/12/18 08:03:40;;;;;;;6.1;4.2;;;;;;;-2.76;91.2334;955.3058;;;;
2021/12/18 08:06:04;;;;;;;6.3;3.8;;;;;;;-2.77;90.10254;955.2908;;;;
2021/12/18 08:08:30;;;;;;;5.1;3.9;;;;;;;-2.75;90.36133;955.3208;;;;
2021/12/18 08:10:55;;;;;;;7.9;5.1;;;;;;;-2.27;90.2627;955.2779;;;;
2021/12/18 08:13:23;;;;;;;5.5;4.1;;;;;;;-1.37;88.90234;955.1976;;;;
2021/12/18 08:15:54;;;;;;;4.3;3.6;;;;;;;-0.67;82.99023;955.2461;;;;
2021/12/18 08:18:19;;;;;;;5.7;4.2;;;;;;;0.33;79.45117;955.1705;;;;
2021/12/18 08:20:45;;;;;;;5.4;3.8;;;;;;;0.94;73.69434;955.0872;;;;
2021/12/18 08:23:10;;;;;;;5.1;3.4;;;;;;;1.55;71.30859;955.0545;;;;
2021/12/18 08:25:35;;;;;;;6.4;3.9;;;;;;;2.11;69.59961;954.9888;;;;
2021/12/18 08:28:01;;;;;;;8;5.8;;;;;;;2.02;69.02734;954.9734;;;;
2021/12/18 08:30:26;;;;;;;8.2;6;;;;;;;2.01;68.54297;954.8455;;;;
2021/12/18 08:32:51;;;;;;;9.2;6;;;;;;;2.35;67.39941;954.9317;;;;
2021/12/18 08:35:21;;;;;;;8;6.1;;;;;;;2.19;68.15625;954.8677;;;;
2021/12/18 08:37:46;;;;;;;9.1;5.7;;;;;;;2.72;66.56055;954.8474;;;;
2021/12/18 08:40:14;;;;;;;9.1;6.4;;;;;;;2.51;66.52734;954.8466;;;;
2021/12/18 08:42:39;;;;;;;9.6;6.2;;;;;;;2.14;68.24023;954.8571;;;;
2021/12/18 08:45:04;;;;;;;8.4;5.3;;;;;;;1.2;72.65625;954.8519;;;;
2021/12/18 08:47:29;;;;;;;7.4;4.8;;;;;;;0.32;76.63086;954.8925;;;;
2021/12/18 08:49:56;;;;;;;7.2;3.8;;;;;;;0.1;78.31641;954.8617;;;;
2021/12/18 08:52:21;;;;;;;5.9;4.1;;;;;;;-0.22;80.5957;954.9794;;;;
2021/12/18 08:54:47;;;;;;;7;4.1;;;;;;;-0.47;82.29492;954.877;;;;
2021/12/18 08:57:12;;;;;;;9.4;4.8;;;;;;;-0.73;83.98047;954.9342;;;;
2021/12/18 08:59:39;;;;;;;8.9;4.6;;;;;;;-0.93;85.44141;954.8209;;;;
2021/12/18 09:02:04;;;;;;;8.3;4.8;;;;;;;-0.91;85.88965;954.934;;;;
2021/12/18 09:04:32;;;;;;;7.8;5;;;;;;;-0.74;85.44629;954.9515;;;;
2021/12/18 09:06:58;;;;;;;8;6;;;;;;;-0.87;85.56152;954.9155;;;;
2021/12/18 09:09:24;;;;;;;11.1;7;;;;;;;-0.78;85.7373;954.9348;;;;
2021/12/18 09:11:49;;;;;;;15.1;7.8;;;;;;;-0.7;85.41992;954.8292;;;;
2021/12/18 09:14:18;;;;;;;12.9;7.2;;;;;;;-0.64;85.81152;954.8828;;;;
2021/12/18 09:16:44;;;;;;;9.4;5.4;;;;;;;-0.49;85.3291;954.8754;;;;
2021/12/18 09:19:13;;;;;;;8.7;5.2;;;;;;;-0.32;84.66211;954.9551;;;;
2021/12/18 09:21:41;;;;;;;6.5;4.2;;;;;;;-0.34;84.2334;954.9194;;;;
2021/12/18 09:24:07;;;;;;;7;4.2;;;;;;;-0.17;84.20313;954.9256;;;;
2021/12/18 09:26:37;;;;;;;7.9;5.1;;;;;;;0.09;83.83008;954.9283;;;;
2021/12/18 09:29:05;;;;;;;7;3.9;;;;;;;0.16;83.90234;954.9183;;;;
2021/12/18 09:31:30;;;;;;;6.5;3.5;;;;;;;0.44;83.1084;954.8823;;;;
2021/12/18 09:33:56;;;;;;;5.8;3.8;;;;;;;0.49;82.73828;954.8575;;;;
2021/12/18 09:36:21;;;;;;;5.9;3.9;;;;;;;0.34;82.35352;954.8542;;;;
2021/12/18 09:38:51;;;;;;;8.3;5.1;;;;;;;0.55;82.34863;954.8212;;;;
2021/12/18 09:41:22;;;;;;;10;6;;;;;;;0.78;82.14941;954.7676;;;;
2021/12/18 09:43:52;;;;;;;7.9;4.9;;;;;;;0.91;81.1582;954.7477;;;;
2021/12/18 09:46:17;;;;;;;14;8.1;;;;;;;1;82.11328;954.7674;;;;
2021/12/18 09:48:46;;;;;;;16.2;8.8;;;;;;;1.17;81.83203;954.7933;;;;
2021/12/18 09:51:13;;;;;;;11.5;7.1;;;;;;;1.12;81.96875;954.8225;;;;
2021/12/18 09:53:36;;;;;;;5.8;3.6;;;;;;;1.02;82.56348;954.8329;;;;
2021/12/18 09:56:01;;;;;;;5.2;3.7;;;;;;;0.84;83.71094;954.7922;;;;
2021/12/18 09:58:28;;;;;;;7.8;5.5;;;;;;;0.8;84.0166;954.7849;;;;
2021/12/18 10:00:53;;;;;;;11.4;6.3;;;;;;;0.62;83.65723;954.785;;;;
2021/12/18 10:03:20;;;;;;;8.1;5.1;;;;;;;0.6;83.47559;954.7758;;;;
2021/12/18 10:05:45;;;;;;;7.2;4.2;;;;;;;0.43;83.4209;954.7974;;;;
2021/12/18 10:08:11;;;;;;;7;4.9;;;;;;;0.51;83.39941;954.7806;;;;
2021/12/18 10:10:38;;;;;;;8.4;5.3;;;;;;;0.53;82.72461;954.7549;;;;
2021/12/18 10:13:04;;;;;;;7.6;4.9;;;;;;;0.34;82.95703;954.7292;;;;
2021/12/18 10:15:28;;;;;;;8.5;4.9;;;;;;;;;;;;;
2021/12/18 10:17:54;;;;;;;5.9;3.8;;;;;;;;;;;;;
2021/12/18 10:20:19;;;;;;;5;3.5;;;;;;;;;;;;;
2021/12/18 10:22:44;;;;;;;5.1;3.2;;;;;;;;;;;;;
2021/12/18 10:25:10;;;;;;;6.4;3.5;;;;;;;;;;;;;
2021/12/18 10:27:37;;;;;;;7.8;4.1;;;;;;;;;;;;;
2021/12/18 10:30:01;;;;;;;5.7;3.8;;;;;;;;;;;;;
2021/12/18 10:32:26;;;;;;;6.4;3.7;;;;;;;;;;;;;
2021/12/18 10:34:51;;;;;;;6.7;3.9;;;;;;;;;;;;;
2021/12/18 10:37:18;;;;;;;5.2;3.3;;;;;;;;;;;;;
2021/12/18 10:39:44;;;;;;;5;3.5;;;;;;;;;;;;;
2021/12/18 10:42:08;;;;;;;6.6;3.5;;;;;;;;;;;;;
2021/12/18 10:44:33;;;;;;;4.3;3.1;;;;;;;;;;;;;
2021/12/18 10:46:58;;;;;;;4.8;3.1;;;;;;;;;;;;;
2021/12/18 10:49:23;;;;;;;5;3.5;;;;;;;;;;;;;
2021/12/18 10:51:50;;;;;;;5.2;3.5;;;;;;;;;;;;;
2021/12/18 10:54:14;;;;;;;5.9;3.7;;;;;;;;;;;;;
2021/12/18 10:56:39;;;;;;;6.6;3.7;;;;;;;;;;;;;
2021/12/18 10:59:04;;;;;;;6;3.7;;;;;;;;;;;;;
2021/12/18 11:01:30;;;;;;;6;3.7;;;;;;;;;;;;;
2021/12/18 11:03:55;;;;;;;5.8;3.8;;;;;;;;;;;;;
2021/12/18 11:06:20;;;;;;;6.9;4.1;;;;;;;;;;;;;
2021/12/18 11:08:45;;;;;;;5.5;3.8;;;;;;;;;;;;;
2021/12/18 11:13:45;;;;;;;5.9;4.1;;;;;;;;;;;;;
2021/12/18 11:16:04;;;;;;;9.2;4.3;;;;;;;;;;;;;
2021/12/18 11:18:33;;;;;;;6.3;4;;;;;;;;;;;;;
2021/12/18 11:20:58;;;;;;;5.8;4.2;;;;;;;;;;;;;
2021/12/18 11:23:23;;;;;;;8.9;5.1;;;;;;;;;;;;;
2021/12/18 11:25:56;;;;;;;6.9;4.5;;;;;;;;;;;;;
2021/12/18 11:28:23;;;;;;;7;4.7;;;;;;;;;;;;;
2021/12/18 11:30:48;;;;;;;7.1;4.4;;;;;;;;;;;;;
2021/12/18 11:33:13;;;;;;;8.2;4.7;;;;;;;;;;;;;
2021/12/18 11:35:42;;;;;;;6.7;4.3;;;;;;;;;;;;;
2021/12/18 11:38:07;;;;;;;6.8;4.8;;;;;;;;;;;;;
2021/12/18 11:40:33;;;;;;;7.6;5.1;;;;;;;;;;;;;
2021/12/18 11:45:57;;;;;;;8.9;5.3;;;;;;;;;;;;;
2021/12/18 11:48:22;;;;;;;8.9;5.1;;;;;;;;;;;;;
2021/12/18 11:50:48;;;;;;;8.2;5.3;;;;;;;;;;;;;
2021/12/18 11:53:13;;;;;;;8;5;;;;;;;;;;;;;
2021/12/18 11:55:39;;;;;;;8.4;5.3;;;;;;;;;;;;;
2021/12/18 11:58:04;;;;;;;8.6;5.5;;;;;;;;;;;;;
2021/12/18 12:00:30;;;;;;;8.9;6;;;;;;;;;;;;;
2021/12/18 12:02:55;;;;;;;9.9;6.6;;;;;;;;;;;;;
2021/12/18 12:05:22;;;;;;;11.5;7.4;;;;;;;;;;;;;
2021/12/18 12:07:51;;;;;;;14.8;8.4;;;;;;;;;;;;;
2021/12/18 12:10:21;;;;;;;12.4;8;;;;;;;;;;;;;
2021/12/18 12:12:38;;;;;;;14.3;8.6;;;;;;;;;;;;;
2021/12/18 12:15:04;;;;;;;12.6;7.8;;;;;;;;;;;;;
2021/12/18 12:17:29;;;;;;;12.1;7.9;;;;;;;;;;;;;
2021/12/18 12:19:54;;;;;;;12;7;;;;;;;;;;;;;
2021/12/18 12:22:20;;;;;;;9.3;6.1;;;;;;;;;;;;;
2021/12/18 12:24:45;;;;;;;8.4;5.5;;;;;;;;;;;;;
2021/12/18 12:27:10;;;;;;;9;6;;;;;;;;;;;;;
2021/12/18 12:29:35;;;;;;;13;7.4;;;;;;;;;;;;;
2021/12/18 12:32:00;;;;;;;12.9;7.4;;;;;;;;;;;;;
2021/12/18 12:34:25;;;;;;;13.3;8;;;;;;;;;;;;;
2021/12/18 12:36:57;;;;;;;11.6;7.5;;;;;;;;;;;;;
2021/12/18 12:39:16;;;;;;;11.2;7.9;;;;;;;;;;;;;
2021/12/18 12:41:42;;;;;;;12.8;8.2;;;;;;;;;;;;;
2021/12/18 12:44:13;;;;;;;13.6;8.5;;;;;;;;;;;;;
2021/12/18 12:46:31;;;;;;;15.8;9.2;;;;;;;;;;;;;
2021/12/18 12:48:56;;;;;;;12.8;7.8;;;;;;;;;;;;;
2021/12/18 12:51:21;;;;;;;12.3;8.1;;;;;;;;;;;;;
2021/12/18 12:53:46;;;;;;;13.1;7.9;;;;;;;;;;;;;
2021/12/18 12:56:11;;;;;;;14.7;8.2;;;;;;;;;;;;;
2021/12/18 12:58:37;;;;;;;12.3;7.9;;;;;;;;;;;;;
2021/12/18 13:01:03;;;;;;;13.2;8.2;;;;;;;;;;;;;
2021/12/18 13:03:27;;;;;;;15.7;9.3;;;;;;;;;;;;;
2021/12/18 13:05:54;;;;;;;15.2;8.8;;;;;;;;;;;;;
2021/12/18 13:08:20;;;;;;;12.4;8;;;;;;;;;;;;;
2021/12/18 13:10:48;;;;;;;14.1;9;;;;;;;;;;;;;
2021/12/18 13:13:11;;;;;;;14.4;8.4;;;;;;;;;;;;;
2021/12/18 13:15:38;;;;;;;13.7;8.7;;;;;;;;;;;;;
2021/12/18 13:18:03;;;;;;;13.2;8.5;;;;;;;;;;;;;
2021/12/18 13:20:30;;;;;;;13.4;8.7;;;;;;;;;;;;;
2021/12/18 13:22:56;;;;;;;13.7;8.1;;;;;;;;;;;;;
2021/12/18 13:25:24;;;;;;;15.8;8.5;;;;;;;;;;;;;
2021/12/18 13:27:49;;;;;;;12.6;8.2;;;;;;;;;;;;;
2021/12/18 13:30:15;;;;;;;13.1;8.2;;;;;;;;;;;;;
2021/12/18 13:32:40;;;;;;;11.3;7.4;;;;;;;;;;;;;
2021/12/18 13:35:06;;;;;;;10.6;7.3;;;;;;;;;;;;;
2021/12/18 13:37:31;;;;;;;11.6;7.4;;;;;;;;;;;;;
2021/12/18 13:39:56;;;;;;;10.8;7.4;;;;;;;;;;;;;
2021/12/18 13:42:21;;;;;;;12.2;8.4;;;;;;;;;;;;;
2021/12/18 13:44:47;;;;;;;11;7.6;;;;;;;;;;;;;
2021/12/18 13:47:13;;;;;;;13.3;8.1;;;;;;;;;;;;;
2021/12/18 13:49:38;;;;;;;11.3;8.1;;;;;;;;;;;;;
2021/12/18 13:52:05;;;;;;;12;8.3;;;;;;;;;;;;;
2021/12/18 13:54:30;;;;;;;12.1;8.3;;;;;;;;;;;;;
2021/12/18 13:56:56;;;;;;;13.6;8.7;;;;;;;;;;;;;
2021/12/18 13:59:20;;;;;;;12.6;8.9;;;;;;;;;;;;;
2021/12/18 14:01:48;;;;;;;12.8;9.2;;;;;;;;;;;;;
2021/12/18 14:04:12;;;;;;;13.5;9.4;;;;;;;;;;;;;
2021/12/18 14:06:37;;;;;;;14.3;9.8;;;;;;;;;;;;;
2021/12/18 14:09:03;;;;;;;14.6;10.3;;;;;;;;;;;;;
2021/12/18 14:11:30;;;;;;;15.9;10.8;;;;;;;;;;;;;
2021/12/18 14:13:55;;;;;;;14;9.9;;;;;;;;;;;;;
2021/12/18 14:16:21;;;;;;;15.6;11;;;;;;;;;;;;;
2021/12/18 14:18:49;;;;;;;17.4;11.7;;;;;;;;;;;;;
2021/12/18 14:21:11;;;;;;;16.3;11.7;;;;;;;;;;;;;
2021/12/18 14:23:36;;;;;;;18.5;12.7;;;;;;;;;;;;;
2021/12/18 14:26:01;;;;;;;17.1;11;;;;;;;;;;;;;
2021/12/18 14:28:27;;;;;;;17.4;11.5;;;;;;;;;;;;;
2021/12/18 14:33:42;;;;;;;20.8;13.1;;;;;;;;;;;;;
2021/12/18 14:36:08;;;;;;;19.9;13.9;;;;;;;;;;;;;
2021/12/18 14:38:33;;;;;;;21.2;14.8;;;;;;;;;;;;;
2021/12/18 14:40:58;;;;;;;22.5;14.5;;;;;;;;;;;;;
2021/12/18 14:43:25;;;;;;;23.6;16.9;;;;;;;;;;;;;
2021/12/18 14:45:48;;;;;;;25.7;17.7;;;;;;;;;;;;;
2021/12/18 14:48:13;;;;;;;30.3;19.9;;;;;;;;;;;;;
2021/12/18 14:50:39;;;;;;;29.3;18.3;;;;;;;;;;;;;
2021/12/18 14:53:04;;;;;;;28.4;18.2;;;;;;;;;;;;;
2021/12/18 14:55:29;;;;;;;28.9;18.5;;;;;;;;;;;;;
2021/12/18 14:57:54;;;;;;;27.1;18.4;;;;;;;;;;;;;
2021/12/18 15:00:21;;;;;;;30.4;19.3;;;;;;;;;;;;;
2021/12/18 15:02:45;;;;;;;29.9;20.1;;;;;;;;;;;;;
2021/12/18 15:05:10;;;;;;;30;19.6;;;;;;;;;;;;;
2021/12/18 15:07:36;;;;;;;29.2;19.7;;;;;;;;;;;;;
2021/12/18 15:10:02;;;;;;;27.2;18.2;;;;;;;;;;;;;
2021/12/18 15:12:27;;;;;;;28.1;18.4;;;;;;;;;;;;;
2021/12/18 15:14:52;;;;;;;27.3;19;;;;;;;;;;;;;
2021/12/18 15:17:18;;;;;;;26.2;18.3;;;;;;;;;;;;;
2021/12/18 15:19:43;;;;;;;41.8;27.8;;;;;;;;;;;;;
2021/12/18 15:22:11;;;;;;;82.6;47.1;;;;;;;;;;;;;
2021/12/18 15:24:35;;;;;;;64.8;39.4;;;;;;;;;;;;;
2021/12/18 15:27:01;;;;;;;47.6;31.9;;;;;;;;;;;;;
2021/12/18 15:29:25;;;;;;;31.5;21.4;;;;;;;;;;;;;
2021/12/18 15:31:52;;;;;;;35.6;23.1;;;;;;;;;;;;;
2021/12/18 15:34:17;;;;;;;40.7;26.7;;;;;;;;;;;;;
2021/12/18 15:36:57;;;;;;;40.4;26.5;;;;;;;;;;;;;
2021/12/18 15:39:22;;;;;;;42.8;28.8;;;;;;;;;;;;;
2021/12/18 15:41:48;;;;;;;42.8;28.4;;;;;;;;;;;;;
2021/12/18 15:44:13;;;;;;;45.3;30;;;;;;;;;;;;;
2021/12/18 15:46:39;;;;;;;46.3;29;;;;;;;;;;;;;
2021/12/18 15:49:05;;;;;;;42.9;28.4;;;;;;;;;;;;;
2021/12/18 15:51:30;;;;;;;41.9;27.4;;;;;;;;;;;;;
2021/12/18 15:53:56;;;;;;;38.9;27.7;;;;;;;;;;;;;
2021/12/18 15:56:21;;;;;;;38.8;26;;;;;;;;;;;;;
2021/12/18 15:58:46;;;;;;;40.8;27.6;;;;;;;;;;;;;
2021/12/18 16:01:11;;;;;;;35.6;24.2;;;;;;;;;;;;;
2021/12/18 16:03:37;;;;;;;34.6;24.8;;;;;;;;;;;;;
2021/12/18 16:06:01;;;;;;;31.9;21.5;;;;;;;;;;;;;
2021/12/18 16:08:27;;;;;;;35.2;24.1;;;;;;;;;;;;;
2021/12/18 16:10:52;;;;;;;37.1;25.6;;;;;;;;;;;;;
2021/12/18 16:13:19;;;;;;;34.8;23.2;;;;;;;;;;;;;
2021/12/18 16:15:44;;;;;;;37.1;26.6;;;;;;;;;;;;;
2021/12/18 16:18:11;;;;;;;35.1;25.6;;;;;;;;;;;;;
2021/12/18 16:20:36;;;;;;;37;25.2;;;;;;;;;;;;;
2021/12/18 16:23:02;;;;;;;35.8;23.7;;;;;;;;;;;;;
2021/12/18 16:25:29;;;;;;;32;21.7;;;;;;;;;;;;;
2021/12/18 16:27:54;;;;;;;35.6;22.7;;;;;;;;;;;;;
2021/12/18 16:30:19;;;;;;;30.7;21.1;;;;;;;;;;;;;
2021/12/18 16:32:44;;;;;;;30.1;19.9;;;;;;;;;;;;;
2021/12/18 16:35:09;;;;;;;30;19.2;;;;;;;;;;;;;
2021/12/18 16:37:36;;;;;;;25.6;16.5;;;;;;;;;;;;;
2021/12/18 16:40:01;;;;;;;24;16.5;;;;;;;;;;;;;
2021/12/18 16:42:27;;;;;;;24.3;17;;;;;;;;;;;;;
2021/12/18 16:44:52;;;;;;;25.5;16.9;;;;;;;;;;;;;
2021/12/18 16:47:18;;;;;;;27.1;17.8;;;;;;;;;;;;;
2021/12/18 16:49:45;;;;;;;24.3;16.7;;;;;;;;;;;;;
2021/12/18 16:52:09;;;;;;;23.4;15.6;;;;;;;;;;;;;
2021/12/18 16:55:07;;;;;;;25.4;16.9;;;;;;;;;;;;;
2021/12/18 16:57:20;;;;;;;26.9;15.7;;;;;;;;;;;;;
2021/12/18 16:59:45;;;;;;;22.3;15.6;;;;;;;;;;;;;
2021/12/18 17:02:10;;;;;;;24.6;16;;;;;;;;;;;;;
2021/12/18 17:04:38;;;;;;;24.5;15.8;;;;;;;;;;;;;
2021/12/18 17:07:03;;;;;;;25.8;16.9;;;;;;;;;;;;;
2021/12/18 17:09:29;;;;;;;26.6;17.4;;;;;;;;;;;;;
2021/12/18 17:11:54;;;;;;;28.4;17.7;;;;;;;;;;;;;
2021/12/18 17:14:19;;;;;;;29.9;19.3;;;;;;;;;;;;;
2021/12/18 17:16:44;;;;;;;34.6;22.6;;;;;;;;;;;;;
2021/12/18 17:19:13;;;;;;;35;23.3;;;;;;;;;;;;;
2021/12/18 17:21:36;;;;;;;34;22.5;;;;;;;;;;;;;
2021/12/18 17:24:06;;;;;;;36;23.8;;;;;;;;;;;;;
2021/12/18 17:26:28;;;;;;;39.6;25.1;;;;;;;;;;;;;
2021/12/18 17:28:53;;;;;;;37.7;24.7;;;;;;;;;;;;;
2021/12/18 17:31:57;;;;;;;38.3;23.9;;;;;;;;;;;;;
2021/12/18 17:34:04;;;;;;;38.5;24.2;;;;;;;;;;;;;
2021/12/18 17:36:29;;;;;;;37.5;25.3;;;;;;;;;;;;;
2021/12/18 17:38:58;;;;;;;45.4;29.1;;;;;;;;;;;;;
2021/12/18 17:41:19;;;;;;;42.1;28.9;;;;;;;;;;;;;
2021/12/18 17:43:44;;;;;;;43.6;29.8;;;;;;;;;;;;;
2021/12/18 17:46:09;;;;;;;48.4;30.9;;;;;;;;;;;;;
2021/12/18 17:48:34;;;;;;;45.2;30.6;;;;;;;;;;;;;
2021/12/18 17:51:01;;;;;;;50.4;33;;;;;;;;;;;;;
2021/12/18 17:53:25;;;;;;;77.3;48.5;;;;;;;;;;;;;
2021/12/18 17:55:50;;;;;;;53.7;36.4;;;;;;;;;;;;;
2021/12/18 17:58:16;;;;;;;83.4;51.1;;;;;;;;;;;;;
2021/12/18 18:00:41;;;;;;;62;39.3;;;;;;;;;;;;;
2021/12/18 18:03:08;;;;;;;57.9;37.7;;;;;;;;;;;;;
2021/12/18 18:05:33;;;;;;;59.1;37.3;;;;;;;;;;;;;
2021/12/18 18:07:59;;;;;;;56;36.5;;;;;;;;;;;;;
2021/12/18 18:10:33;;;;;;;57.5;36.5;;;;;;;;;;;;;
2021/12/18 18:12:49;;;;;;;60.3;39.5;;;;;;;;;;;;;
2021/12/18 18:15:15;;;;;;;65.2;40.9;;;;;;;;;;;;;
2021/12/18 18:17:40;;;;;;;50.4;34.6;;;;;;;;;;;;;
2021/12/18 18:20:09;;;;;;;36.9;24.8;;;;;;;;;;;;;
2021/12/18 18:22:34;;;;;;;38.4;24.4;;;;;;;;;;;;;